createdAt,value
2023-01-03T00:00:29.479Z,2.48
2023-01-03T00:01:29.432Z,1.12
2023-01-03T00:02:29.604Z,0.69
2023-01-03T00:03:29.573Z,0.47
2023-01-03T00:04:29.599Z,1.75
2023-01-03T00:05:29.601Z,0.00
2023-01-03T00:06:29.638Z,0.69
2023-01-03T00:07:29.675Z,0.00
2023-01-03T00:08:29.715Z,0.00
2023-01-03T00:09:29.740Z,1.96
2023-01-03T00:10:29.813Z,0.58
2023-01-03T00:11:29.806Z,0.00
2023-01-03T00:12:31.370Z,1.22
2023-01-03T00:13:29.816Z,0.00
2023-01-03T00:14:29.819Z,0.00
2023-01-03T00:15:29.861Z,0.00
2023-01-03T00:16:29.975Z,0.00
2023-01-03T00:17:29.926Z,0.00
2023-01-03T00:18:29.928Z,1.33
2023-01-03T00:19:29.927Z,0.00
2023-01-03T00:20:29.929Z,1.01
2023-01-03T00:21:29.970Z,1.54
2023-01-03T00:22:30.009Z,0.00
2023-01-03T00:23:30.059Z,0.00
2023-01-03T00:24:30.128Z,0.00
2023-01-03T00:25:30.156Z,1.65
2023-01-03T00:26:30.149Z,0.90
2023-01-03T00:27:30.203Z,0.00
2023-01-03T00:28:30.218Z,0.00
2023-01-03T00:29:30.274Z,0.00
2023-01-03T00:30:30.313Z,0.69
2023-01-03T00:31:30.318Z,0.47
2023-01-03T00:32:30.359Z,1.44
2023-01-03T00:33:30.419Z,1.44
2023-01-03T00:34:30.397Z,1.75
2023-01-03T00:35:30.420Z,0.47
2023-01-03T00:36:30.460Z,0.80
2023-01-03T00:37:30.485Z,1.33
2023-01-03T00:38:30.529Z,0.00
2023-01-03T00:39:30.555Z,1.12
2023-01-03T00:40:30.611Z,0.00
2023-01-03T00:41:30.629Z,2.07
2023-01-03T00:42:30.701Z,0.00
2023-01-03T00:43:30.721Z,0.00
2023-01-03T00:44:30.722Z,1.12
2023-01-03T00:45:35.048Z,0.00
2023-01-03T00:46:30.759Z,0.00
2023-01-03T00:47:30.763Z,0.00
2023-01-03T00:48:30.833Z,0.00
2023-01-03T00:49:30.890Z,0.90
2023-01-03T00:50:30.933Z,0.00
2023-01-03T00:51:30.956Z,0.00
2023-01-03T00:52:31.022Z,0.00
2023-01-03T00:53:31.026Z,0.00
2023-01-03T00:54:31.045Z,0.00
2023-01-03T00:55:31.068Z,0.00
2023-01-03T00:56:31.107Z,1.01
2023-01-03T00:57:31.126Z,0.00
2023-01-03T00:58:31.149Z,0.00
2023-01-03T00:59:31.154Z,0.00
2023-01-03T01:00:31.156Z,0.69
2023-01-03T01:01:31.311Z,0.00
2023-01-03T01:02:31.412Z,0.00
2023-01-03T01:03:31.420Z,0.00
2023-01-03T01:04:31.249Z,0.00
2023-01-03T01:05:31.299Z,0.58
2023-01-03T01:06:31.335Z,0.00
2023-01-03T01:07:31.335Z,0.00
2023-01-03T01:08:31.377Z,0.00
2023-01-03T01:09:31.409Z,0.00
2023-01-03T01:10:31.417Z,0.00
2023-01-03T01:11:31.429Z,0.00
2023-01-03T01:12:31.435Z,0.00
2023-01-03T01:13:31.420Z,0.00
2023-01-03T01:14:31.507Z,0.00
2023-01-03T01:15:31.556Z,1.96
2023-01-03T01:16:31.647Z,2.28
2023-01-03T01:17:31.590Z,0.00
2023-01-03T01:18:31.661Z,0.00
2023-01-03T01:19:31.656Z,0.00
2023-01-03T01:20:31.664Z,0.00
2023-01-03T01:21:31.676Z,0.00
2023-01-03T01:22:31.661Z,0.00
2023-01-03T01:23:31.694Z,0.00
2023-01-03T01:24:31.714Z,0.00
2023-01-03T01:25:31.721Z,0.69
2023-01-03T01:26:31.737Z,0.00
2023-01-03T01:27:31.759Z,0.00
2023-01-03T01:28:31.752Z,0.00
2023-01-03T01:29:31.779Z,1.86
2023-01-03T01:30:31.846Z,1.01
2023-01-03T01:31:31.981Z,1.01
2023-01-03T01:32:31.991Z,1.01
2023-01-03T01:33:32.103Z,0.69
2023-01-03T01:34:32.097Z,0.58
2023-01-03T01:35:32.200Z,0.69
2023-01-03T01:36:32.185Z,0.69
2023-01-03T01:37:32.186Z,0.58
2023-01-03T01:38:32.244Z,0.69
2023-01-03T01:39:32.334Z,0.80
2023-01-03T01:40:32.329Z,0.80
2023-01-03T01:41:32.331Z,1.12
2023-01-03T01:42:32.301Z,1.01
2023-01-03T01:43:32.393Z,0.58
2023-01-03T01:44:32.401Z,0.58
2023-01-03T01:45:32.383Z,0.58
2023-01-03T01:46:32.508Z,0.69
2023-01-03T01:47:32.494Z,0.58
2023-01-03T01:48:32.510Z,0.69
2023-01-03T01:49:32.513Z,0.69
2023-01-03T01:50:32.488Z,0.90
2023-01-03T01:51:32.557Z,0.90
2023-01-03T01:52:32.635Z,0.47
2023-01-03T01:53:32.656Z,0.00
2023-01-03T01:54:32.761Z,0.58
2023-01-03T01:55:32.779Z,0.00
2023-01-03T01:56:32.824Z,0.58
2023-01-03T01:57:32.867Z,0.00
2023-01-03T01:58:32.951Z,0.00
2023-01-03T01:59:32.948Z,0.00
2023-01-03T02:00:32.940Z,0.00
2023-01-03T02:01:33.059Z,0.00
2023-01-03T02:02:33.204Z,0.00
2023-01-03T02:03:33.115Z,0.00
2023-01-03T02:04:33.770Z,0.00
2023-01-03T02:05:34.111Z,0.00
2023-01-03T02:06:33.236Z,0.00
2023-01-03T02:07:33.174Z,0.00
2023-01-03T02:08:34.203Z,0.00
2023-01-03T02:09:33.290Z,0.00
2023-01-03T02:10:33.283Z,0.00
2023-01-03T02:11:33.301Z,0.00
2023-01-03T02:12:34.101Z,0.00
2023-01-03T02:13:33.300Z,0.00
2023-01-03T02:14:33.388Z,0.00
2023-01-03T02:15:33.463Z,0.00
2023-01-03T02:16:34.292Z,0.00
2023-01-03T02:17:33.427Z,0.00
2023-01-03T02:18:33.430Z,0.00
2023-01-03T02:19:33.432Z,0.00
2023-01-03T02:20:33.433Z,0.00
2023-01-03T02:21:33.436Z,0.47
2023-01-03T02:22:33.435Z,0.00
2023-01-03T02:23:33.433Z,0.00
2023-01-03T02:24:33.433Z,0.00
2023-01-03T02:25:33.444Z,0.00
2023-01-03T02:26:33.437Z,1.01
2023-01-03T02:27:33.494Z,2.07
2023-01-03T02:28:33.513Z,0.00
2023-01-03T02:29:33.515Z,0.00
2023-01-03T02:30:33.513Z,0.00
2023-01-03T02:31:33.579Z,0.00
2023-01-03T02:32:33.520Z,0.00
2023-01-03T02:33:33.578Z,0.47
2023-01-03T02:34:33.586Z,0.00
2023-01-03T02:35:33.626Z,0.00
2023-01-03T02:36:33.598Z,0.00
2023-01-03T02:37:33.633Z,1.22
2023-01-03T02:38:33.686Z,0.00
2023-01-03T02:39:33.883Z,0.00
2023-01-03T02:40:33.797Z,1.65
2023-01-03T02:41:33.837Z,0.00
2023-01-03T02:42:33.890Z,0.00
2023-01-03T02:43:33.972Z,1.01
2023-01-03T02:44:34.016Z,0.00
2023-01-03T02:45:34.010Z,0.00
2023-01-03T02:46:34.073Z,0.00
2023-01-03T02:47:34.058Z,0.00
2023-01-03T02:48:34.059Z,0.00
2023-01-03T02:49:34.079Z,0.00
2023-01-03T02:50:34.110Z,0.00
2023-01-03T02:51:34.119Z,0.00
2023-01-03T02:52:34.142Z,0.00
2023-01-03T02:53:35.180Z,0.00
2023-01-03T02:54:34.927Z,0.00
2023-01-03T02:55:34.701Z,0.00
2023-01-03T02:56:34.384Z,0.00
2023-01-03T02:57:35.091Z,0.00
2023-01-03T02:58:34.402Z,0.00
2023-01-03T02:59:34.631Z,0.00
2023-01-03T03:00:34.428Z,0.00
2023-01-03T03:01:34.525Z,0.00
2023-01-03T03:02:34.728Z,0.00
2023-01-03T03:03:35.377Z,0.00
2023-01-03T03:04:34.424Z,0.00
2023-01-03T03:05:34.472Z,0.00
2023-01-03T03:06:34.552Z,0.00
2023-01-03T03:07:34.657Z,0.00
2023-01-03T03:08:34.576Z,0.00
2023-01-03T03:09:34.578Z,0.00
2023-01-03T03:10:34.586Z,0.00
2023-01-03T03:11:34.606Z,0.00
2023-01-03T03:12:34.668Z,0.00
2023-01-03T03:13:34.665Z,0.00
2023-01-03T03:14:34.715Z,0.00
2023-01-03T03:15:34.796Z,0.00
2023-01-03T03:16:34.826Z,0.00
2023-01-03T03:17:34.755Z,0.00
2023-01-03T03:18:34.807Z,0.00
2023-01-03T03:19:34.827Z,0.00
2023-01-03T03:20:34.867Z,0.00
2023-01-03T03:21:34.877Z,0.00
2023-01-03T03:22:34.907Z,0.00
2023-01-03T03:23:34.911Z,0.00
2023-01-03T03:24:34.907Z,0.00
2023-01-03T03:25:34.986Z,0.00
2023-01-03T03:26:35.007Z,1.12
2023-01-03T03:27:35.058Z,1.01
2023-01-03T03:28:35.072Z,0.58
2023-01-03T03:29:35.118Z,0.00
2023-01-03T03:30:35.136Z,0.00
2023-01-03T03:31:35.193Z,0.00
2023-01-03T03:32:35.142Z,0.00
2023-01-03T03:33:35.190Z,1.33
2023-01-03T03:34:35.216Z,0.00
2023-01-03T03:35:35.213Z,0.47
2023-01-03T03:36:35.228Z,0.00
2023-01-03T03:37:35.222Z,1.75
2023-01-03T03:38:35.894Z,1.12
2023-01-03T03:39:35.431Z,1.44
2023-01-03T03:40:35.352Z,0.00
2023-01-03T03:41:35.380Z,0.00
2023-01-03T03:42:35.442Z,1.12
2023-01-03T03:43:35.556Z,0.00
2023-01-03T03:44:35.802Z,0.00
2023-01-03T03:45:35.562Z,0.00
2023-01-03T03:46:36.475Z,0.00
2023-01-03T03:47:36.202Z,0.00
2023-01-03T03:48:35.603Z,0.00
2023-01-03T03:49:35.587Z,0.00
2023-01-03T03:50:35.678Z,0.00
2023-01-03T03:51:35.687Z,0.00
2023-01-03T03:52:36.374Z,0.00
2023-01-03T03:53:35.751Z,0.00
2023-01-03T03:54:36.445Z,1.86
2023-01-03T03:55:35.756Z,0.47
2023-01-03T03:56:35.815Z,0.90
2023-01-03T03:57:35.853Z,0.00
2023-01-03T03:58:35.833Z,1.33
2023-01-03T03:59:35.852Z,0.00
2023-01-03T04:00:35.925Z,0.00
2023-01-03T04:01:36.134Z,0.00
2023-01-03T04:02:36.032Z,0.00
2023-01-03T04:03:36.084Z,0.00
2023-01-03T04:04:36.077Z,1.22
2023-01-03T04:05:36.114Z,0.47
2023-01-03T04:06:36.119Z,0.00
2023-01-03T04:07:36.127Z,0.00
2023-01-03T04:08:36.165Z,0.00
2023-01-03T04:09:36.141Z,0.00
2023-01-03T04:10:38.194Z,0.00
2023-01-03T04:11:36.171Z,0.00
2023-01-03T04:22:38.087Z,16.13
2023-01-03T04:23:38.118Z,14.99
2023-01-03T04:24:38.134Z,17.40
2023-01-03T04:25:38.159Z,16.88
2023-01-03T04:26:38.204Z,15.22
2023-01-03T04:29:05.413Z,8.80
2023-01-03T04:32:56.139Z,5.19
2023-01-03T04:38:14.193Z,3.91
2023-01-03T04:40:41.461Z,3.61
2023-01-03T04:41:41.295Z,3.40
2023-01-03T04:42:40.369Z,3.40
2023-01-03T04:43:40.637Z,3.61
2023-01-03T04:44:40.372Z,3.81
2023-01-03T04:45:40.461Z,3.91
2023-01-03T04:46:40.416Z,4.99
2023-01-03T04:47:41.183Z,3.20
2023-01-03T04:48:40.404Z,3.61
2023-01-03T04:49:40.494Z,3.20
2023-01-03T04:50:41.373Z,4.21
2023-01-03T04:51:40.435Z,3.51
2023-01-03T04:52:40.501Z,2.90
2023-01-03T04:53:40.516Z,2.90
2023-01-03T04:54:40.643Z,3.20
2023-01-03T04:55:40.600Z,3.81
2023-01-03T04:56:40.675Z,3.61
2023-01-03T04:57:40.645Z,2.69
2023-01-03T04:58:40.717Z,3.00
2023-01-03T04:59:40.755Z,3.51
2023-01-03T05:00:40.833Z,3.61
2023-01-03T05:01:40.924Z,3.30
2023-01-03T05:02:40.973Z,3.20
2023-01-03T05:03:40.873Z,3.40
2023-01-03T05:04:41.621Z,3.20
2023-01-03T05:05:40.912Z,2.90
2023-01-03T05:06:40.966Z,3.40
2023-01-03T05:07:41.911Z,3.10
2023-01-03T05:08:40.972Z,2.79
2023-01-03T05:09:41.033Z,3.20
2023-01-03T05:10:41.048Z,2.17
2023-01-03T05:11:41.026Z,1.54
2023-01-03T05:12:41.008Z,2.17
2023-01-03T05:13:41.069Z,1.86
2023-01-03T05:14:41.126Z,2.28
2023-01-03T05:15:41.180Z,1.96
2023-01-03T05:16:41.303Z,1.86
2023-01-03T05:17:41.249Z,2.07
2023-01-03T05:18:41.259Z,3.00
2023-01-03T05:19:45.401Z,3.81
2023-01-03T05:20:41.310Z,3.30
2023-01-03T05:21:41.381Z,1.96
2023-01-03T05:22:41.473Z,2.07
2023-01-03T05:23:41.441Z,2.07
2023-01-03T05:24:41.501Z,2.17
2023-01-03T05:25:41.571Z,3.91
2023-01-03T05:26:41.643Z,2.28
2023-01-03T05:27:41.708Z,2.79
2023-01-03T05:28:41.692Z,1.86
2023-01-03T05:29:41.801Z,2.48
2023-01-03T05:30:41.770Z,1.75
2023-01-03T05:31:41.879Z,1.75
2023-01-03T05:32:41.864Z,1.86
2023-01-03T05:33:41.936Z,2.07
2023-01-03T05:34:42.029Z,1.86
2023-01-03T05:35:42.003Z,2.69
2023-01-03T05:36:42.064Z,2.07
2023-01-03T05:37:42.132Z,2.28
2023-01-03T05:38:42.202Z,3.40
2023-01-03T05:39:42.278Z,3.81
2023-01-03T05:40:42.260Z,3.20
2023-01-03T05:41:42.272Z,3.00
2023-01-03T05:42:42.323Z,4.01
2023-01-03T05:43:42.385Z,4.40
2023-01-03T05:44:42.399Z,5.19
2023-01-03T05:45:42.486Z,2.38
2023-01-03T05:46:42.541Z,2.48
2023-01-03T05:47:42.554Z,2.69
2023-01-03T05:48:42.527Z,1.86
2023-01-03T05:49:42.596Z,1.54
2023-01-03T05:50:42.674Z,2.69
2023-01-03T05:51:42.655Z,2.17
2023-01-03T05:52:42.736Z,1.75
2023-01-03T05:53:42.726Z,2.90
2023-01-03T05:54:42.785Z,2.79
2023-01-03T05:55:42.835Z,4.01
2023-01-03T05:56:42.901Z,3.00
2023-01-03T05:57:42.979Z,2.59
2023-01-03T05:58:42.978Z,2.69
2023-01-03T05:59:42.973Z,2.28
2023-01-03T06:00:43.036Z,2.79
2023-01-03T06:01:43.241Z,4.30
2023-01-03T06:02:43.197Z,2.38
2023-01-03T06:03:43.131Z,2.69
2023-01-03T06:04:43.147Z,4.11
2023-01-03T06:05:49.558Z,1.44
2023-01-03T06:06:43.217Z,3.81
2023-01-03T06:07:43.191Z,2.48
2023-01-03T06:08:43.253Z,3.30
2023-01-03T06:09:43.329Z,3.40
2023-01-03T06:10:43.318Z,3.61
2023-01-03T06:11:43.379Z,2.38
2023-01-03T06:12:43.370Z,2.28
2023-01-03T06:13:43.363Z,2.28
2023-01-03T06:14:43.439Z,2.38
2023-01-03T06:15:43.436Z,2.28
2023-01-03T06:16:43.495Z,2.59
2023-01-03T06:17:43.412Z,2.28
2023-01-03T06:18:43.480Z,2.48
2023-01-03T06:19:43.587Z,2.79
2023-01-03T06:20:43.582Z,2.28
2023-01-03T06:21:43.562Z,2.79
2023-01-03T06:22:43.670Z,2.38
2023-01-03T06:23:43.665Z,3.30
2023-01-03T06:24:43.642Z,2.38
2023-01-03T06:25:43.721Z,2.17
2023-01-03T06:26:43.714Z,3.20
2023-01-03T06:27:43.773Z,2.17
2023-01-03T06:28:43.853Z,2.17
2023-01-03T06:29:43.927Z,1.75
2023-01-03T06:30:43.950Z,2.69
2023-01-03T06:31:43.976Z,2.69
2023-01-03T06:32:43.968Z,2.07
2023-01-03T06:33:44.089Z,2.90
2023-01-03T06:34:44.047Z,1.96
2023-01-03T06:35:44.965Z,3.51
2023-01-03T06:36:44.058Z,1.96
2023-01-03T06:37:44.049Z,2.69
2023-01-03T06:38:44.056Z,1.54
2023-01-03T06:39:44.083Z,2.59
2023-01-03T06:40:45.896Z,1.44
2023-01-03T06:41:44.127Z,1.44
2023-01-03T06:42:44.206Z,1.54
2023-01-03T06:43:44.265Z,2.48
2023-01-03T06:44:44.279Z,1.44
2023-01-03T06:45:44.311Z,1.65
2023-01-03T06:46:44.983Z,1.65
2023-01-03T06:47:44.304Z,1.65
2023-01-03T06:48:44.352Z,1.44
2023-01-03T06:49:44.558Z,1.54
2023-01-03T06:50:44.390Z,1.65
2023-01-03T06:51:44.423Z,1.65
2023-01-03T06:52:44.527Z,1.65
2023-01-03T06:53:44.480Z,1.96
2023-01-03T06:54:44.518Z,1.33
2023-01-03T06:55:44.516Z,1.65
2023-01-03T06:56:44.566Z,1.54
2023-01-03T06:57:44.571Z,1.54
2023-01-03T06:58:44.591Z,1.65
2023-01-03T06:59:44.889Z,1.54
2023-01-03T07:00:45.612Z,1.54
2023-01-03T07:01:44.883Z,1.54
2023-01-03T07:02:44.914Z,1.54
2023-01-03T07:03:44.805Z,1.75
2023-01-03T07:04:44.841Z,2.17
2023-01-03T07:05:44.818Z,1.96
2023-01-03T07:06:44.850Z,2.79
2023-01-03T07:07:44.852Z,3.61
2023-01-03T07:08:48.415Z,1.54
2023-01-03T07:09:44.928Z,2.90
2023-01-03T07:10:44.914Z,3.00
2023-01-03T07:11:44.922Z,1.54
2023-01-03T07:12:44.923Z,1.65
2023-01-03T07:13:44.966Z,1.44
2023-01-03T07:14:44.943Z,1.44
2023-01-03T07:15:45.024Z,2.79
2023-01-03T07:16:44.990Z,3.10
2023-01-03T07:17:44.994Z,4.60
2023-01-03T07:18:49.346Z,2.48
2023-01-03T07:19:45.032Z,3.71
2023-01-03T07:20:45.051Z,2.79
2023-01-03T07:21:45.083Z,2.90
2023-01-03T07:22:45.167Z,2.07
2023-01-03T07:23:45.165Z,3.00
2023-01-03T07:24:45.172Z,2.90
2023-01-03T07:25:45.145Z,2.48
2023-01-03T07:26:45.227Z,2.38
2023-01-03T07:27:45.194Z,2.28
2023-01-03T07:28:45.214Z,1.01
2023-01-03T07:29:45.226Z,1.22
2023-01-03T07:30:45.254Z,2.59
2023-01-03T07:31:45.326Z,2.17
2023-01-03T07:32:45.321Z,2.48
2023-01-03T07:33:45.338Z,2.38
2023-01-03T07:34:45.367Z,2.38
2023-01-03T07:35:45.423Z,2.28
2023-01-03T07:36:45.460Z,2.59
2023-01-03T07:37:45.498Z,2.28
2023-01-03T07:38:45.566Z,2.28
2023-01-03T07:39:45.587Z,2.69
2023-01-03T07:40:45.591Z,2.79
2023-01-03T07:41:45.579Z,3.40
2023-01-03T07:42:45.604Z,2.79
2023-01-03T07:43:45.685Z,3.00
2023-01-03T07:44:45.648Z,3.20
2023-01-03T07:45:45.727Z,1.12
2023-01-03T07:46:45.777Z,1.54
2023-01-03T07:47:45.766Z,1.65
2023-01-03T07:48:45.857Z,1.54
2023-01-03T07:49:45.903Z,1.44
2023-01-03T07:50:45.947Z,1.33
2023-01-03T07:51:45.970Z,1.33
2023-01-03T07:52:45.997Z,1.33
2023-01-03T07:53:46.071Z,2.07
2023-01-03T07:54:46.099Z,0.00
2023-01-03T07:55:47.091Z,0.00
2023-01-03T07:56:46.131Z,0.00
2023-01-03T07:57:46.132Z,0.00
2023-01-03T07:58:46.141Z,0.00
2023-01-03T07:59:46.230Z,0.00
2023-01-03T08:00:46.272Z,0.00
2023-01-03T08:01:46.480Z,0.00
2023-01-03T08:02:46.453Z,0.00
2023-01-03T08:03:46.347Z,0.00
2023-01-03T08:04:46.434Z,0.00
2023-01-03T08:05:46.345Z,0.00
2023-01-03T08:06:46.414Z,0.00
2023-01-03T08:07:46.415Z,0.00
2023-01-03T08:08:46.423Z,0.00
2023-01-03T08:09:46.452Z,0.00
2023-01-03T08:10:46.497Z,0.00
2023-01-03T08:11:46.568Z,0.00
2023-01-03T08:12:46.574Z,0.00
2023-01-03T08:13:46.590Z,0.00
2023-01-03T08:14:46.584Z,0.00
2023-01-03T08:15:46.631Z,0.00
2023-01-03T08:16:46.645Z,0.00
2023-01-03T08:17:46.625Z,0.00
2023-01-03T08:18:46.670Z,0.00
2023-01-03T08:19:46.695Z,0.00
2023-01-03T08:20:46.699Z,0.00
2023-01-03T08:21:46.749Z,0.00
2023-01-03T08:22:46.769Z,0.00
2023-01-03T08:23:46.825Z,0.00
2023-01-03T08:24:46.801Z,0.00
2023-01-03T08:25:46.807Z,0.00
2023-01-03T08:26:46.806Z,0.00
2023-01-03T08:27:50.429Z,0.00
2023-01-03T08:28:46.914Z,0.00
2023-01-03T08:29:46.939Z,0.00
2023-01-03T08:30:46.937Z,0.00
2023-01-03T08:31:47.096Z,0.00
2023-01-03T08:32:47.026Z,0.00
2023-01-03T08:33:47.079Z,0.00
2023-01-03T08:34:47.098Z,0.00
2023-01-03T08:35:47.161Z,0.00
2023-01-03T08:36:47.221Z,0.00
2023-01-03T08:37:47.244Z,0.00
2023-01-03T08:38:47.244Z,0.00
2023-01-03T08:39:48.103Z,0.00
2023-01-03T08:40:47.258Z,0.00
2023-01-03T08:41:47.271Z,0.00
2023-01-03T08:42:47.311Z,0.00
2023-01-03T08:43:47.319Z,0.00
2023-01-03T08:44:48.200Z,0.00
2023-01-03T08:45:47.370Z,0.00
2023-01-03T08:46:47.459Z,0.00
2023-01-03T08:47:47.428Z,0.00
2023-01-03T08:48:47.455Z,0.00
2023-01-03T08:49:47.594Z,0.00
2023-01-03T08:50:47.565Z,0.00
2023-01-03T08:51:47.632Z,0.00
2023-01-03T08:52:47.680Z,0.00
2023-01-03T08:53:47.703Z,0.00
2023-01-03T08:54:47.703Z,0.00
2023-01-03T08:55:47.736Z,0.00
2023-01-03T08:56:47.794Z,0.00
2023-01-03T08:57:47.856Z,0.00
2023-01-03T08:58:47.961Z,0.00
2023-01-03T08:59:51.183Z,0.00
2023-01-03T09:00:47.962Z,0.00
2023-01-03T09:01:48.278Z,0.00
2023-01-03T09:02:48.210Z,0.00
2023-01-03T09:03:48.143Z,0.00
2023-01-03T09:04:48.065Z,0.00
2023-01-03T09:05:48.122Z,0.00
2023-01-03T09:06:48.126Z,0.00
2023-01-03T09:07:48.163Z,0.00
2023-01-03T09:08:48.170Z,0.00
2023-01-03T09:09:48.199Z,0.00
2023-01-03T09:10:48.263Z,0.00
2023-01-03T09:11:48.284Z,0.00
2023-01-03T09:12:48.297Z,0.00
2023-01-03T09:13:48.392Z,0.00
2023-01-03T09:14:48.368Z,0.00
2023-01-03T09:15:48.459Z,0.00
2023-01-03T09:16:49.487Z,0.00
2023-01-03T09:17:48.438Z,0.00
2023-01-03T09:18:48.486Z,0.00
2023-01-03T09:19:48.466Z,0.00
2023-01-03T09:20:48.498Z,0.00
2023-01-03T09:21:48.606Z,0.00
2023-01-03T09:22:48.588Z,0.00
2023-01-03T09:23:48.648Z,0.00
2023-01-03T09:24:48.704Z,0.00
2023-01-03T09:25:48.740Z,0.00
2023-01-03T09:26:54.180Z,0.00
2023-01-03T09:27:48.781Z,0.69
2023-01-03T09:28:48.880Z,0.00
2023-01-03T09:29:48.981Z,0.00
2023-01-03T09:30:48.906Z,0.00
2023-01-03T09:31:51.292Z,0.00
2023-01-03T09:32:48.979Z,0.00
2023-01-03T09:33:49.026Z,0.00
2023-01-03T09:34:49.072Z,0.00
2023-01-03T09:35:49.090Z,0.00
2023-01-03T09:36:49.237Z,0.00
2023-01-03T09:37:49.284Z,0.00
2023-01-03T09:38:49.160Z,0.00
2023-01-03T09:39:49.230Z,0.00
2023-01-03T09:40:49.289Z,0.00
2023-01-03T09:41:49.333Z,0.00
2023-01-03T09:42:49.380Z,0.00
2023-01-03T09:43:49.421Z,0.00
2023-01-03T09:44:49.492Z,0.00
2023-01-03T09:45:49.463Z,0.00
2023-01-03T09:46:49.571Z,0.90
2023-01-03T09:47:49.574Z,0.00
2023-01-03T09:48:49.559Z,0.00
2023-01-03T09:50:26.203Z,0.00
2023-01-03T09:51:17.207Z,0.00
2023-01-03T09:51:49.705Z,0.00
2023-01-03T09:52:49.743Z,0.00
2023-01-03T09:53:49.783Z,0.00
2023-01-03T09:54:49.783Z,0.00
2023-01-03T09:55:49.808Z,0.00
2023-01-03T09:56:49.872Z,0.00
2023-01-03T09:57:49.901Z,0.00
2023-01-03T09:58:49.915Z,0.00
2023-01-03T09:59:49.934Z,0.00
2023-01-03T10:00:49.990Z,0.00
2023-01-03T10:01:50.333Z,0.00
2023-01-03T10:02:50.291Z,0.00
2023-01-03T10:03:51.854Z,0.00
2023-01-03T10:04:50.154Z,0.00
2023-01-03T10:05:50.204Z,0.00
2023-01-03T10:06:50.241Z,0.00
2023-01-03T10:07:50.299Z,0.00
2023-01-03T10:08:50.308Z,0.00
2023-01-03T10:09:50.316Z,0.00
2023-01-03T10:10:50.363Z,0.00
2023-01-03T10:11:50.396Z,0.00
2023-01-03T10:12:50.480Z,0.00
2023-01-03T10:13:50.540Z,0.00
2023-01-03T10:14:50.565Z,0.00
2023-01-03T10:15:50.582Z,0.00
2023-01-03T10:16:50.655Z,0.00
2023-01-03T10:17:50.620Z,0.00
2023-01-03T10:18:50.648Z,0.00
2023-01-03T10:19:50.678Z,0.00
2023-01-03T10:20:50.692Z,0.00
2023-01-03T10:21:50.689Z,0.00
2023-01-03T10:22:50.737Z,0.00
2023-01-03T10:23:50.775Z,0.00
2023-01-03T10:24:50.799Z,0.00
2023-01-03T10:25:50.840Z,0.00
2023-01-03T10:26:50.871Z,0.00
2023-01-03T10:27:50.882Z,0.00
2023-01-03T10:28:51.110Z,0.00
2023-01-03T10:29:51.002Z,0.00
2023-01-03T10:30:58.317Z,0.00
2023-01-03T10:31:51.091Z,0.69
2023-01-03T10:32:51.035Z,0.00
2023-01-03T10:33:51.106Z,0.00
2023-01-03T10:34:51.092Z,0.00
2023-01-03T10:35:51.103Z,0.00
2023-01-03T10:36:51.153Z,0.00
2023-01-03T10:37:51.195Z,0.00
2023-01-03T10:38:53.223Z,0.00
2023-01-03T10:39:51.313Z,0.47
2023-01-03T10:40:51.319Z,0.00
2023-01-03T10:41:51.349Z,0.00
2023-01-03T10:42:51.366Z,0.80
2023-01-03T10:43:51.415Z,0.00
2023-01-03T10:44:51.424Z,0.00
2023-01-03T10:45:51.481Z,0.00
2023-01-03T10:46:51.606Z,0.00
2023-01-03T10:47:51.555Z,0.00
2023-01-03T10:49:51.639Z,0.00
2023-01-03T10:50:51.638Z,0.00
2023-01-03T10:51:51.655Z,0.00
2023-01-03T10:52:51.666Z,0.00
2023-01-03T10:53:51.697Z,0.00
2023-01-03T10:54:51.708Z,0.00
2023-01-03T10:55:51.767Z,0.00
2023-01-03T10:56:51.766Z,0.00
2023-01-03T10:57:51.762Z,0.00
2023-01-03T10:58:51.796Z,0.58
2023-01-03T10:59:51.827Z,0.00
2023-01-03T11:00:51.929Z,0.00
2023-01-03T11:01:52.071Z,0.00
2023-01-03T11:02:52.019Z,0.00
2023-01-03T11:03:51.969Z,0.00
2023-01-03T11:04:51.979Z,0.00
2023-01-03T11:05:51.979Z,0.00
2023-01-03T11:06:51.991Z,0.00
2023-01-03T11:07:51.979Z,0.00
2023-01-03T11:08:52.027Z,0.00
2023-01-03T11:09:52.707Z,0.00
2023-01-03T11:10:52.092Z,0.00
2023-01-03T11:11:52.080Z,0.00
2023-01-03T11:12:52.134Z,0.00
2023-01-03T11:13:52.142Z,0.69
2023-01-03T11:14:52.841Z,0.00
2023-01-03T11:15:52.184Z,0.47
2023-01-03T11:16:52.213Z,0.00
2023-01-03T11:17:52.121Z,0.00
2023-01-03T11:18:52.129Z,0.00
2023-01-03T11:19:52.801Z,0.00
2023-01-03T11:20:52.185Z,0.00
2023-01-03T11:21:52.213Z,0.00
2023-01-03T11:22:52.200Z,0.00
2023-01-03T11:23:52.245Z,0.58
2023-01-03T11:24:52.983Z,0.47
2023-01-03T11:25:52.326Z,0.00
2023-01-03T11:26:52.321Z,0.00
2023-01-03T11:27:53.881Z,0.80
2023-01-03T11:28:52.407Z,0.00
2023-01-03T11:29:52.405Z,0.47
2023-01-03T11:30:52.424Z,0.69
2023-01-03T11:31:52.528Z,0.00
2023-01-03T11:32:52.513Z,0.90
2023-01-03T11:33:52.553Z,0.58
2023-01-03T11:35:22.223Z,0.00
2023-01-03T11:35:52.607Z,0.69
2023-01-03T11:36:52.668Z,0.00
2023-01-03T11:37:52.683Z,0.00
2023-01-03T11:38:52.759Z,0.00
2023-01-03T11:39:52.818Z,0.00
2023-01-03T11:40:52.853Z,0.00
2023-01-03T11:41:52.841Z,0.00
2023-01-03T11:42:52.917Z,0.00
2023-01-03T11:43:52.918Z,0.00
2023-01-03T11:44:52.989Z,0.00
2023-01-03T11:45:53.056Z,0.00
2023-01-03T11:46:53.110Z,0.00
2023-01-03T11:47:53.139Z,0.00
2023-01-03T11:48:53.219Z,0.00
2023-01-03T11:49:53.268Z,0.00
2023-01-03T11:50:53.245Z,0.00
2023-01-03T11:51:53.246Z,0.00
2023-01-03T11:52:53.243Z,0.00
2023-01-03T11:53:53.289Z,0.00
2023-01-03T11:54:53.834Z,1.54
2023-01-03T11:55:53.358Z,0.00
2023-01-03T11:56:53.351Z,0.00
2023-01-03T11:57:53.383Z,0.00
2023-01-03T11:58:53.403Z,0.00
2023-01-03T11:59:53.444Z,0.00
2023-01-03T12:00:53.534Z,0.00
2023-01-03T12:01:53.632Z,0.00
2023-01-03T12:02:53.647Z,0.00
2023-01-03T12:03:53.731Z,0.00
2023-01-03T12:04:53.720Z,0.00
2023-01-03T12:05:53.731Z,0.00
2023-01-03T12:07:03.550Z,0.00
2023-01-03T12:07:53.790Z,0.00
2023-01-03T12:08:53.779Z,0.00
2023-01-03T12:09:53.837Z,0.69
2023-01-03T12:10:53.807Z,0.00
2023-01-03T12:11:53.870Z,0.00
2023-01-03T12:12:53.874Z,0.00
2023-01-03T12:13:53.927Z,0.00
2023-01-03T12:14:53.951Z,0.00
2023-01-03T12:15:54.013Z,0.00
2023-01-03T12:16:53.994Z,0.69
2023-01-03T12:17:54.082Z,0.00
2023-01-03T12:18:54.089Z,0.69
2023-01-03T12:19:54.115Z,0.00
2023-01-03T12:20:54.143Z,0.00
2023-01-03T12:21:54.151Z,0.00
2023-01-03T12:22:54.150Z,0.00
2023-01-03T12:23:54.170Z,0.47
2023-01-03T12:24:56.843Z,0.00
2023-01-03T12:25:54.241Z,0.00
2023-01-03T12:26:54.281Z,0.90
2023-01-03T12:27:54.291Z,0.00
2023-01-03T12:28:54.323Z,0.00
2023-01-03T12:29:54.332Z,0.00
2023-01-03T12:30:54.385Z,0.00
2023-01-03T12:31:54.407Z,0.00
2023-01-03T12:32:54.364Z,0.00
2023-01-03T12:33:54.394Z,0.00
2023-01-03T12:34:54.391Z,0.00
2023-01-03T12:35:54.395Z,0.00
2023-01-03T12:36:54.404Z,0.00
2023-01-03T12:37:54.434Z,0.00
2023-01-03T12:38:54.435Z,0.00
2023-01-03T12:39:54.515Z,0.00
2023-01-03T12:40:54.497Z,0.00
2023-01-03T12:41:54.512Z,0.00
2023-01-03T12:42:54.525Z,0.00
2023-01-03T12:43:56.616Z,0.69
2023-01-03T12:44:54.568Z,0.69
2023-01-03T12:45:54.571Z,0.00
2023-01-03T12:46:54.684Z,0.00
2023-01-03T12:47:54.714Z,0.00
2023-01-03T12:48:54.728Z,0.00
2023-01-03T12:49:54.758Z,0.00
2023-01-03T12:50:54.864Z,0.47
2023-01-03T12:51:54.824Z,0.80
2023-01-03T12:52:54.819Z,0.00
2023-01-03T12:53:54.880Z,0.69
2023-01-03T12:54:54.910Z,2.38
2023-01-03T12:55:54.955Z,0.00
2023-01-03T12:56:54.963Z,1.65
2023-01-03T12:57:55.030Z,0.00
2023-01-03T12:58:55.060Z,0.00
2023-01-03T12:59:55.057Z,0.00
2023-01-03T13:00:55.101Z,0.80
2023-01-03T13:01:55.317Z,0.00
2023-01-03T13:02:55.313Z,0.00
2023-01-03T13:03:55.214Z,1.86
2023-01-03T13:04:55.174Z,0.00
2023-01-03T13:05:55.200Z,0.00
2023-01-03T13:06:55.203Z,0.00
2023-01-03T13:07:55.195Z,0.00
2023-01-03T13:08:55.254Z,0.00
2023-01-03T13:10:00.705Z,0.00
2023-01-03T13:10:55.281Z,0.00
2023-01-03T13:11:55.276Z,0.47
2023-01-03T13:12:55.269Z,0.00
2023-01-03T13:13:55.278Z,0.00
2023-01-03T13:14:55.283Z,2.17
2023-01-03T13:15:55.342Z,0.69
2023-01-03T13:16:55.293Z,0.00
2023-01-03T13:17:55.317Z,1.33
2023-01-03T13:18:55.349Z,0.47
2023-01-03T13:19:55.422Z,0.00
2023-01-03T13:20:55.412Z,0.00
2023-01-03T13:21:55.412Z,0.00
2023-01-03T13:22:55.459Z,0.80
2023-01-03T13:23:55.477Z,2.69
2023-01-03T13:24:55.509Z,0.00
2023-01-03T13:25:55.529Z,0.00
2023-01-03T13:26:55.551Z,0.00
2023-01-03T13:27:55.531Z,0.00
2023-01-03T13:28:56.240Z,0.00
2023-01-03T13:29:55.634Z,0.00
2023-01-03T13:30:55.720Z,0.00
2023-01-03T13:31:55.687Z,0.00
2023-01-03T13:32:55.741Z,0.00
2023-01-03T13:33:55.748Z,0.00
2023-01-03T13:34:55.782Z,0.00
2023-01-03T13:35:55.752Z,0.00
2023-01-03T13:36:55.850Z,0.47
2023-01-03T13:37:55.793Z,0.00
2023-01-03T13:38:55.991Z,0.00
2023-01-03T13:39:55.888Z,0.00